createdAt,value
2023-01-25T00:01:22.819Z,-1.82
2023-01-25T00:03:51.140Z,-1.85
2023-01-25T00:06:19.203Z,-1.87
2023-01-25T00:08:51.270Z,-1.88
2023-01-25T00:11:20.494Z,-1.88
2023-01-25T00:13:48.949Z,-1.86
2023-01-25T00:16:17.587Z,-1.87
2023-01-25T00:18:45.937Z,-1.87
2023-01-25T00:21:18.027Z,-1.87
2023-01-25T00:23:46.228Z,-1.89
2023-01-25T00:26:14.764Z,-1.91
2023-01-25T00:28:43.144Z,-1.92
2023-01-25T00:31:16.242Z,-1.90
2023-01-25T00:33:51.275Z,-1.89
2023-01-25T00:36:39.508Z,-1.90
2023-01-25T00:39:11.484Z,-1.89
2023-01-25T00:41:40.539Z,-1.87
2023-01-25T00:44:08.990Z,-1.88
2023-01-25T00:46:39.514Z,-1.88
2023-01-25T00:49:21.927Z,-1.84
2023-01-25T00:51:50.658Z,-1.80
2023-01-25T00:54:19.988Z,-1.78
2023-01-25T00:56:48.130Z,-1.77
2023-01-25T00:59:16.523Z,-1.76
2023-01-25T01:01:44.826Z,-1.78
2023-01-25T01:04:13.520Z,-1.82
2023-01-25T01:06:42.923Z,-1.82
2023-01-25T01:09:13.520Z,-1.80
2023-01-25T01:11:41.637Z,-1.78
2023-01-25T01:14:10.377Z,-1.76
2023-01-25T01:16:38.813Z,-1.74
2023-01-25T01:19:07.235Z,-1.74
2023-01-25T01:21:35.521Z,-1.74
2023-01-25T01:24:04.103Z,-1.76
2023-01-25T01:26:32.554Z,-1.78
2023-01-25T01:29:00.826Z,-1.77
2023-01-25T01:31:29.407Z,-1.73
2023-01-25T01:34:05.575Z,-1.72
2023-01-25T01:36:34.675Z,-1.71
2023-01-25T01:39:03.306Z,-1.71
2023-01-25T01:41:31.837Z,-1.74
2023-01-25T01:44:00.961Z,-1.74
2023-01-25T01:46:40.491Z,-1.74
2023-01-25T01:49:20.123Z,-1.72
2023-01-25T01:51:50.044Z,-1.71
2023-01-25T01:54:44.352Z,-1.69
2023-01-25T01:57:16.743Z,-1.67
2023-01-25T01:59:48.914Z,-1.66
2023-01-25T02:02:17.386Z,-1.66
2023-01-25T02:04:47.635Z,-1.65
2023-01-25T10:12:23.138Z,5.02
2023-01-25T10:14:53.717Z,4.81
2023-01-25T10:17:58.220Z,4.62
2023-01-25T10:20:37.104Z,4.09
2023-01-25T10:23:43.874Z,3.73
2023-01-25T10:26:26.154Z,3.46
2023-01-25T10:28:59.913Z,3.21
2023-01-25T10:31:52.925Z,2.91
2023-01-25T10:34:20.975Z,2.63
2023-01-25T10:36:56.530Z,2.39
2023-01-25T10:39:23.562Z,2.25
2023-01-25T10:42:01.626Z,2.21
2023-01-25T10:44:36.013Z,2.23
2023-01-25T10:47:35.013Z,2.20
2023-01-25T10:50:03.051Z,2.22
2023-01-25T10:52:31.415Z,2.27
2023-01-25T10:55:18.131Z,2.32
2023-01-25T10:57:49.629Z,2.41
2023-01-25T11:00:39.984Z,2.43
2023-01-25T11:03:20.867Z,2.36
2023-01-25T11:05:55.386Z,2.27
2023-01-25T11:08:23.706Z,2.29
2023-01-25T11:10:51.419Z,2.24
2023-01-25T11:13:26.720Z,2.17
2023-01-25T11:15:54.970Z,2.16
2023-01-25T11:18:24.853Z,2.13
2023-01-25T11:21:29.674Z,2.08
2023-01-25T11:24:08.514Z,2.08
2023-01-25T11:26:37.297Z,2.07
2023-01-25T11:29:20.605Z,2.05
2023-01-25T11:31:49.513Z,2.03
2023-01-25T11:34:18.397Z,2.00
2023-01-25T11:37:07.064Z,2.04
2023-01-25T11:39:52.396Z,2.06
2023-01-25T11:42:31.959Z,2.08
2023-01-25T11:45:41.461Z,2.05
2023-01-25T11:48:14.409Z,2.07
2023-01-25T11:50:46.954Z,2.14
2023-01-25T11:53:35.994Z,2.15
2023-01-25T11:56:20.079Z,2.16
2023-01-25T11:58:56.300Z,2.17
2023-01-25T12:01:35.142Z,2.16
2023-01-25T12:04:26.627Z,2.12
2023-01-25T12:06:59.181Z,2.03
2023-01-25T12:09:44.672Z,2.00
2023-01-25T12:12:14.990Z,1.99
2023-01-25T12:14:50.833Z,1.98
2023-01-25T12:17:26.304Z,1.98
2023-01-25T12:20:00.211Z,1.96
2023-01-25T12:22:56.475Z,1.87
2023-01-25T12:25:46.199Z,1.88
2023-01-25T12:28:31.557Z,1.93
2023-01-25T12:31:10.358Z,1.91
2023-01-25T12:33:59.039Z,1.89
2023-01-25T12:36:33.871Z,1.90
2023-01-25T12:39:04.625Z,1.87
2023-01-25T12:42:01.945Z,1.83
2023-01-25T12:44:49.466Z,1.81
2023-01-25T12:47:37.041Z,1.84
2023-01-25T12:50:23.327Z,1.87
2023-01-25T12:52:54.011Z,1.87
2023-01-25T12:55:21.107Z,1.87
2023-01-25T12:58:02.979Z,1.86
2023-01-25T13:00:52.683Z,1.86
2023-01-25T13:03:44.320Z,1.88
2023-01-25T13:06:42.000Z,1.87
2023-01-25T13:09:36.379Z,1.86
2023-01-25T13:12:03.913Z,1.84
2023-01-25T13:14:36.442Z,1.80
2023-01-25T13:17:10.750Z,1.74
2023-01-25T13:19:41.821Z,1.74
2023-01-25T13:22:10.218Z,1.74
2023-01-25T13:25:02.388Z,1.75
2023-01-25T13:27:30.363Z,1.76
2023-01-25T13:30:03.276Z,1.73
2023-01-25T13:32:39.205Z,1.70
2023-01-25T13:35:27.146Z,1.68
2023-01-25T13:38:03.186Z,1.67
2023-01-25T13:40:37.235Z,1.65
2023-01-25T13:43:11.340Z,1.64
2023-01-25T13:45:38.486Z,1.62
2023-01-25T13:48:27.215Z,1.60
2023-01-25T13:51:04.815Z,1.58
2023-01-25T13:53:34.683Z,1.56
2023-01-25T13:56:01.871Z,1.57
2023-01-25T13:58:36.917Z,1.56
2023-01-25T14:01:07.623Z,1.56
2023-01-25T14:04:02.526Z,1.54
2023-01-25T14:06:35.607Z,1.52
2023-01-25T14:09:06.870Z,1.49
2023-01-25T14:11:35.775Z,1.46
2023-01-25T14:14:03.831Z,1.42
2023-01-25T14:16:31.486Z,1.36
2023-01-25T14:19:22.317Z,1.31
2023-01-25T14:21:49.488Z,1.25
2023-01-25T14:24:18.405Z,1.22
2023-01-25T14:26:46.853Z,1.20
2023-01-25T14:29:31.848Z,1.17
2023-01-25T14:32:00.334Z,1.16
2023-01-25T14:34:27.554Z,1.15
2023-01-25T14:37:30.114Z,1.10
2023-01-25T14:39:56.961Z,1.04
2023-01-25T14:42:24.052Z,0.99
2023-01-25T14:44:51.065Z,0.93
2023-01-25T14:47:26.023Z,0.83
2023-01-25T14:49:53.368Z,0.79
2023-01-25T14:52:20.453Z,0.74
2023-01-25T14:54:51.873Z,0.73
2023-01-25T14:57:37.747Z,0.71
2023-01-25T15:00:08.630Z,0.69
2023-01-25T15:02:40.593Z,0.65
2023-01-25T15:05:28.932Z,0.59
2023-01-25T18:26:22.065Z,-2.34
2023-01-25T18:28:52.109Z,-2.07
2023-01-25T18:31:20.497Z,-1.97
2023-01-25T21:59:18.718Z,-2.35
2023-01-25T22:01:47.252Z,-2.40
2023-01-25T22:04:16.505Z,-2.46
